Terminal Aerodrome Forecast
Issued by NWS

Current Version | Previous Version | Text Only | Print | Product List | Glossary Off
Versions: 1 2 3 4 5 6 7 8 9 10 11 12 13 14 15 16 17 18 19 20 21 22 23 24 25 26 27 28 29

000
FTUS41 KPBZ 242320
TAFHLG
TAF
KHLG 242320Z 2500/2524 11010G18KT P6SM -SHRA OVC050
     FM250700 11009KT P6SM SHRA OVC025
     FM251200 15005KT 6SM -SHRA OVC015
     FM251600 16004KT P6SM -SHRA BKN025=

USA.gov is the U.S. government's official web portal to all federal, state and local government web resources and services.